LOWSLQSA

Guest
Details From LOWS - Salzburg Maxglan
To LQSA - Sarajevo
Flight Number -
Tags decoded
Created
Modified
Stats Distance 334 nm / 619 km
Max Altitude 0 ft / 0 m
Waypoints 5
Social Downloads 0
Likes 0
Share VATSIM

Download

Looking for another format? Having issues loading an existing format? Contact us
Advertisement - Login to hide

Notes

Requested: LOWS DOL KOMAR DONJI LQSA

Route

LOWS DOL KOMAR DONJI LQSA

ID Type Via Altitude Latitude Longitude Leg Dist Tot Dist Heading (true) Name
O LOWS APT - 0 ft / 0 m 47.79333˚ 13.00433˚ - 0 nm - Salzburg Maxglan
DOL VOR - 0 ft / 0 m 46.08414˚ 14.77857˚ 125 nm 125 nm 144° / 145° DOLSKO VOR-DME
KOMAR FIX - 0 ft / 0 m 44.95806˚ 16.80417˚ 108 nm 234 nm 128° / 129° -
DONJI FIX - 0 ft / 0 m 44.14769˚ 17.40664˚ 55 nm 289 nm 152° / 152° -
O LQSA APT - 0 ft / 0 m 43.82460˚ 18.33150˚ 44 nm 334 nm 116° / 116° Sarajevo

Altitude Profile

Advertisement - Login to hide

Weather


0- 5 10 15 20 25 30 35+ Temperature / ° C

Clouds and Precipitation
Forecast for 2018-05-27 12:00 UTC. Updated 5 hours ago

Ground ~20,000 ft ~40,000 ft Winds

LOWS

Details ICAO LOWS (SZG)
Name Salzburg Maxglan
Region Austria
Timezone Europe/Vienna (UTC+2.0)
Stats Elevation 1,411 ft / 430 m (AMSL)
Location 47.793333° 13.004333°
Runways 1
Magnetic Variation 3.481° E

METAR

LOWS 271520Z 24003KT 210V290 9999 FEW050 FEW060CB SCT080 BKN300 26/13 Q1018 TEMPO TS

Decode

TAF

TAF TAF LOWS 271115Z 2712/2812 35006KT 9999 FEW060 BKN300 TX28/2812Z TN15/2803Z TEMPO 2712/2718 SCT060 FEW060CB PROB40 TEMPO 2714/2718 15015G25KT TSRA FEW060CB BKN070 BECMG 2718/2720 15006KT CAVOK BECMG 2807/2809 35006KT 9999 FEW060 TEMPO 2810/2812 03008KT SCT060 FEW060TCU

Decode

Departure Runways

ID Width Length Bearing (true) Bearing (mag) Surface Threshold Offset Overrun Length
16 148 ft / 45 m 9,024 ft / 2,751 m 157.08° 153.60° Concrete 656 ft / 200 m 0 ft / 0 m
34 148 ft / 45 m 9,024 ft / 2,751 m 337.09° 333.61° Concrete 787 ft / 240 m 0 ft / 0 m

LQSA

Details ICAO LQSA (SJJ)
Name Sarajevo
Region Bosnia and Herzegovinia
Timezone Europe/Sarajevo (UTC+2.0)
Stats Elevation 1,708 ft / 521 m (AMSL)
Location 43.824597° 18.331500°
Runways 1
Magnetic Variation 4.270° E

METAR

LQSA 271530Z 30006KT 9999 FEW040TCU SCT050 25/15 Q1018 TEMPO 27015KT TSRA FEW035CB SCT045

Decode

TAF

Not found

Destination Runways

ID Width Length Bearing (true) Bearing (mag) Surface Threshold Offset Overrun Length
12 150 ft / 46 m 8,519 ft / 2,597 m 117.41° 113.14° Asphalt 333 ft / 102 m 0 ft / 0 m
30 150 ft / 46 m 8,519 ft / 2,597 m 297.43° 293.16° Asphalt 666 ft / 203 m 0 ft / 0 m

Approach Navaids

Runway Type Ident Frequency Range Bearing (true) Bearing (mag) Slope Elevation
12 Localiser BHS 110.70 MHz 25 nm / 46 km 117.00° 112.73° - 1,709 ft / 521 m (AMSL)
12 Glidescope BHS 110.70 MHz 25 nm / 46 km 117.00° 112.73° 3.20° 1,705 ft / 520 m (AMSL)
12 DME BHS 110.70 MHz 25 nm / 46 km - - - 1,705 ft / 520 m (AMSL)

Popular Alternatives